createdAt,value
2018-09-13T00:07:19.998Z,19.7
2018-09-13T00:12:28.100Z,19.7
2018-09-13T00:17:36.228Z,19.7
2018-09-13T00:22:44.100Z,19.5
2018-09-13T00:27:52.808Z,19.5
2018-09-13T00:33:00.138Z,19.5
2018-09-13T00:38:08.228Z,19.4
2018-09-13T00:43:16.302Z,19.3
2018-09-13T00:48:24.357Z,19.3
2018-09-13T00:53:32.529Z,19.3
2018-09-13T00:58:40.458Z,19.2
2018-09-13T01:03:48.645Z,19.2
2018-09-13T01:08:56.598Z,19.1
2018-09-13T01:14:07.402Z,19
2018-09-13T01:19:12.696Z,19
2018-09-13T01:24:20.805Z,19
2018-09-13T01:29:28.822Z,19
2018-09-13T01:39:44.954Z,19
2018-09-13T01:44:53.065Z,19
2018-09-13T01:50:01.082Z,19
2018-09-13T01:55:09.267Z,19
2018-09-13T02:00:17.280Z,18.9
2018-09-13T02:05:25.351Z,18.9
2018-09-13T02:10:33.429Z,19
2018-09-13T02:15:41.694Z,19
2018-09-13T02:20:49.580Z,19
2018-09-13T02:25:57.731Z,19
2018-09-13T02:31:05.746Z,19
2018-09-13T02:36:13.861Z,19
2018-09-13T02:41:21.986Z,19
2018-09-13T02:46:29.968Z,19
2018-09-13T02:51:38.063Z,18.9
2018-09-13T02:56:46.351Z,18.9
2018-09-13T03:01:54.178Z,19
2018-09-13T03:07:02.296Z,19
2018-09-13T03:12:10.372Z,19.1
2018-09-13T03:22:26.521Z,19
2018-09-13T03:27:34.578Z,19.1
2018-09-13T03:32:42.632Z,19.1
2018-09-13T03:37:50.691Z,19.2
2018-09-13T03:42:58.856Z,19.3
2018-09-13T03:48:06.776Z,19.3
2018-09-13T03:53:14.847Z,19.5
2018-09-13T03:58:23.354Z,19.5
2018-09-13T04:03:31.001Z,19.7
2018-09-13T04:08:38.945Z,19.7
2018-09-13T04:13:46.998Z,19.7
2018-09-13T04:18:55.043Z,19.8
2018-09-13T04:29:11.103Z,20
2018-09-13T04:34:19.132Z,19.9
2018-09-13T04:39:27.138Z,20
2018-09-13T04:44:35.141Z,20.1
2018-09-13T04:54:51.244Z,20.1
2018-09-13T05:10:15.053Z,20.2
2018-09-13T05:15:23.018Z,20.2
2018-09-13T05:20:31.053Z,20.3
2018-09-13T05:25:38.988Z,20.3
2018-09-13T05:30:46.946Z,20.3
2018-09-13T05:35:54.938Z,20.4
2018-09-13T05:41:02.907Z,20.5
2018-09-13T05:46:10.897Z,20.6
2018-09-13T05:51:18.920Z,20.7
2018-09-13T05:56:26.842Z,20.8
2018-09-13T06:01:34.796Z,20.9
2018-09-13T06:06:42.785Z,21
2018-09-13T06:11:50.760Z,21.1
2018-09-13T06:16:58.695Z,21.2
2018-09-13T06:22:06.627Z,21.2
2018-09-13T06:27:14.565Z,21.3
2018-09-13T06:32:22.734Z,21.3
2018-09-13T06:37:30.447Z,21.5
2018-09-13T06:52:54.263Z,21.8
2018-09-13T06:58:02.168Z,21.9
2018-09-13T07:03:10.062Z,22.1
2018-09-13T07:08:17.921Z,22.2
2018-09-13T07:18:33.620Z,22.4
2018-09-13T07:23:41.453Z,22.5
2018-09-13T07:28:49.279Z,22.6
2018-09-13T07:33:57.067Z,22.8
2018-09-13T07:39:04.876Z,22.9
2018-09-13T07:44:12.705Z,23
2018-09-13T07:49:20.457Z,23.2
2018-09-13T07:54:28.346Z,23.3
2018-09-13T07:59:36.141Z,23.4
2018-09-13T08:04:43.816Z,23.5
2018-09-13T08:09:51.694Z,23.7
2018-09-13T08:14:59.394Z,23.8
2018-09-13T08:20:07.209Z,23.9
2018-09-13T08:30:22.700Z,24.2
2018-09-13T08:35:30.441Z,24.2
2018-09-13T08:40:38.217Z,24.4
2018-09-13T08:45:45.970Z,24.3
2018-09-13T08:50:53.860Z,24.5
2018-09-13T08:56:01.458Z,24.6
2018-09-13T09:01:09.047Z,24.7
2018-09-13T09:06:16.818Z,24.8
2018-09-13T09:11:24.510Z,25
2018-09-13T09:16:32.305Z,25.4
2018-09-13T09:21:39.937Z,25.5
2018-09-13T09:26:47.483Z,25.8
2018-09-13T09:37:02.693Z,26.3
2018-09-13T09:42:10.344Z,26.6
2018-09-13T09:47:17.982Z,26.8
2018-09-13T09:52:25.475Z,27.1
2018-09-13T09:57:33.008Z,27.4
2018-09-13T10:02:40.567Z,27.7
2018-09-13T10:12:55.613Z,28.1
2018-09-13T10:18:03.195Z,28.2
2018-09-13T10:23:10.578Z,28.4
2018-09-13T10:28:18.055Z,28.4
2018-09-13T10:33:25.520Z,28.4
2018-09-13T10:38:33.029Z,28.5
2018-09-13T10:43:40.741Z,28.5
2018-09-13T10:48:47.969Z,28.6
2018-09-13T10:53:55.449Z,28.6
2018-09-13T10:59:02.873Z,28.6
2018-09-13T11:04:10.338Z,28.8
2018-09-13T11:09:17.751Z,29.1
2018-09-13T11:14:25.202Z,29.3
2018-09-13T11:19:32.581Z,29.6
2018-09-13T11:24:40.028Z,29.8
2018-09-13T11:29:47.407Z,29.9
2018-09-13T11:34:54.778Z,30
2018-09-13T11:40:02.489Z,30
2018-09-13T11:45:09.535Z,30.1
2018-09-13T12:05:39.019Z,31
2018-09-13T12:10:46.321Z,31.4
2018-09-13T12:15:53.659Z,31.8
2018-09-13T12:21:01.007Z,32
2018-09-13T12:26:08.286Z,32.2
2018-09-13T12:31:15.391Z,32.3
2018-09-13T12:36:22.665Z,32.3
2018-09-13T12:41:29.902Z,32.3
2018-09-13T12:46:37.284Z,32.2
2018-09-13T12:51:44.387Z,32.4
2018-09-13T12:56:51.599Z,32.9
2018-09-13T13:07:06.095Z,33.3
2018-09-13T13:12:13.312Z,33.5
2018-09-13T13:17:20.342Z,33.6
2018-09-13T13:22:27.348Z,33.8
2018-09-13T13:27:34.533Z,33.9
2018-09-13T13:37:48.643Z,34
2018-09-13T13:42:55.771Z,33.9
2018-09-13T13:48:02.945Z,33.7
2018-09-13T13:53:09.995Z,33.5
2018-09-13T14:03:24.249Z,33
2018-09-13T14:08:31.411Z,32.8
2018-09-13T14:13:38.572Z,32.6
2018-09-13T14:18:45.742Z,32.3
2018-09-13T14:23:52.929Z,32.2
2018-09-13T14:29:00.203Z,32
2018-09-13T14:34:07.359Z,31.9
2018-09-13T14:44:22.627Z,31.8
2018-09-13T14:49:28.963Z,31.7
2018-09-13T14:54:36.264Z,31.6
2018-09-13T14:59:43.456Z,31.5
2018-09-13T15:04:50.645Z,31.5
2018-09-13T15:09:57.932Z,31.3
2018-09-13T15:30:26.893Z,30.6
2018-09-13T15:35:34.239Z,30.4
2018-09-13T15:45:48.794Z,30.3
2018-09-13T15:50:58.271Z,30.4
2018-09-13T15:56:03.568Z,30.3
2018-09-13T16:01:10.706Z,30.3
2018-09-13T16:06:18.088Z,30.2
2018-09-13T16:11:25.464Z,30.2
2018-09-13T16:16:32.820Z,30.1
2018-09-13T16:21:40.109Z,30
2018-09-13T16:26:47.472Z,30.1
2018-09-13T16:31:54.697Z,30.1
2018-09-13T16:37:02.197Z,30.2
2018-09-13T16:42:09.346Z,30.4
2018-09-13T16:47:16.799Z,30.4
2018-09-13T16:52:24.100Z,30.5
2018-09-13T17:02:38.732Z,30.7
2018-09-13T17:12:53.684Z,30.6
2018-09-13T17:18:00.666Z,30.5
2018-09-13T17:23:08.050Z,30.3
2018-09-13T17:28:15.346Z,30.2
2018-09-13T17:33:22.850Z,30.1
2018-09-13T17:38:30.077Z,29.9
2018-09-13T17:43:37.617Z,29.6
2018-09-13T17:48:44.800Z,29.4
2018-09-13T17:53:52.216Z,29.1
2018-09-13T17:58:59.639Z,29
2018-09-13T18:04:06.960Z,28.6
2018-09-13T18:09:14.398Z,28.4
2018-09-13T18:14:21.845Z,28.1
2018-09-13T18:19:29.288Z,27.9
2018-09-13T18:24:36.765Z,27.6
2018-09-13T18:29:44.238Z,27.3
2018-09-13T18:34:51.730Z,27
2018-09-13T18:45:06.782Z,26.6
2018-09-13T18:50:14.348Z,26.3
2018-09-13T18:55:22.023Z,26
2018-09-13T19:00:29.508Z,25.7
2018-09-13T19:05:37.154Z,25.3
2018-09-13T19:10:44.883Z,25
2018-09-13T19:15:52.432Z,24.9
2018-09-13T19:21:00.140Z,24.6
2018-09-13T19:26:07.805Z,24.3
2018-09-13T19:31:15.479Z,24.1
2018-09-13T19:36:23.122Z,23.8
2018-09-13T19:41:30.906Z,23.5
2018-09-13T19:46:38.638Z,23.4
2018-09-13T19:51:46.402Z,23
2018-09-13T19:56:54.189Z,23
2018-09-13T20:02:02.106Z,22.7
2018-09-13T20:07:09.683Z,22.4
2018-09-13T20:12:18.281Z,22.2
2018-09-13T20:17:25.468Z,22
2018-09-13T20:37:56.729Z,21.3
2018-09-13T20:43:04.594Z,21.1
2018-09-13T20:48:12.469Z,20.9
2018-09-13T20:53:20.411Z,20.8
2018-09-13T20:58:28.388Z,20.6
2018-09-13T21:03:36.294Z,20.4
2018-09-13T21:08:44.149Z,20.3
2018-09-13T21:13:54.978Z,20.2
2018-09-13T21:19:00.106Z,20
2018-09-13T21:24:08.108Z,19.8
2018-09-13T21:29:16.168Z,19.8
2018-09-13T21:34:24.209Z,19.7
2018-09-13T21:39:32.349Z,19.5
2018-09-13T21:44:40.199Z,19.4
2018-09-13T21:49:48.124Z,19.2
2018-09-13T21:54:56.197Z,19
2018-09-13T22:00:04.285Z,18.9
2018-09-13T22:10:20.417Z,18.7
2018-09-13T22:15:28.552Z,18.6
2018-09-13T22:20:36.609Z,18.5
2018-09-13T22:25:45.199Z,18.4
2018-09-13T22:30:52.828Z,18.3
2018-09-13T22:36:00.953Z,18.2
2018-09-13T22:41:09.197Z,18.3
2018-09-13T22:46:17.167Z,18.1
2018-09-13T22:51:25.298Z,18.1
2018-09-13T22:56:33.374Z,18
2018-09-13T23:01:41.625Z,18
2018-09-13T23:06:49.641Z,18
2018-09-13T23:11:58.202Z,17.9
2018-09-13T23:17:05.971Z,17.8
2018-09-13T23:22:14.227Z,17.8
2018-09-13T23:27:22.334Z,17.7
2018-09-13T23:32:30.396Z,17.8
2018-09-13T23:37:38.580Z,17.6
2018-09-13T23:42:46.740Z,17.6
2018-09-13T23:53:03.011Z,17.5
